createdAt,value
2023-02-15T00:00:00.548Z,62.22
2023-02-15T00:02:27.664Z,60.13
2023-02-15T00:04:54.839Z,57.70
2023-02-15T00:07:21.775Z,63.53
2023-02-15T00:09:48.846Z,48.00
2023-02-15T00:12:16.605Z,64.20
2023-02-15T00:14:43.452Z,70.45
2023-02-15T00:17:10.324Z,46.20
2023-02-15T00:19:37.341Z,25.17
2023-02-15T00:22:04.165Z,22.70
2023-02-15T00:24:30.978Z,27.73
2023-02-15T00:26:57.759Z,19.30
2023-02-15T00:29:24.547Z,18.75
2023-02-15T00:31:53.133Z,22.20
2023-02-15T00:34:22.904Z,20.23
2023-02-15T00:36:50.346Z,122.68
2023-02-15T00:39:18.400Z,52.67
2023-02-15T00:41:46.603Z,53.53
2023-02-15T00:44:14.681Z,37.80
2023-02-15T00:46:41.620Z,89.03
2023-02-15T00:49:08.550Z,63.30
2023-02-15T00:51:35.444Z,35.83
2023-02-15T00:54:02.284Z,32.10
2023-02-15T00:56:29.475Z,30.42
2023-02-15T00:58:56.459Z,21.48
2023-02-15T01:01:24.474Z,23.10
2023-02-15T01:03:51.507Z,25.80
2023-02-15T01:06:19.125Z,38.25
2023-02-15T01:08:47.040Z,53.20
2023-02-15T01:11:23.027Z,23.50
2023-02-15T01:13:55.534Z,50.38
2023-02-15T01:16:23.380Z,32.22
2023-02-15T01:18:50.379Z,70.53
2023-02-15T01:21:19.958Z,41.10
2023-02-15T01:23:47.250Z,53.65
2023-02-15T01:26:14.870Z,45.88
2023-02-15T01:28:41.846Z,22.25
2023-02-15T01:31:10.721Z,28.48
2023-02-15T01:33:38.274Z,34.80
2023-02-15T01:36:06.021Z,45.67
2023-02-15T01:38:33.786Z,25.48
2023-02-15T01:41:19.127Z,14.10
2023-02-15T01:43:49.334Z,22.98
2023-02-15T01:46:18.663Z,89.47
2023-02-15T01:48:48.905Z,24.13
2023-02-15T01:51:23.232Z,31.45
2023-02-15T01:54:03.848Z,36.33
2023-02-15T01:56:34.400Z,23.10
2023-02-15T01:59:06.886Z,60.50
2023-02-15T02:01:33.888Z,19.02
2023-02-15T02:04:12.959Z,33.80
2023-02-15T02:06:40.709Z,31.60
2023-02-15T02:09:08.583Z,31.20
2023-02-15T02:11:35.901Z,29.17
2023-02-15T02:14:02.939Z,49.80
2023-02-15T02:16:37.902Z,125.35
2023-02-15T02:19:38.972Z,55.47
2023-02-15T02:22:09.481Z,35.47
2023-02-15T02:25:07.511Z,50.90
2023-02-15T02:27:44.014Z,24.88
2023-02-15T02:30:16.991Z,21.00
2023-02-15T02:33:11.236Z,67.57
2023-02-15T02:36:09.533Z,46.63
2023-02-15T02:38:50.642Z,46.08
2023-02-15T02:41:44.495Z,43.88
2023-02-15T02:44:18.377Z,53.30
2023-02-15T02:47:09.361Z,28.65
2023-02-15T02:49:42.218Z,22.83
2023-02-15T02:52:36.440Z,35.35
2023-02-15T02:55:07.677Z,31.48
2023-02-15T02:57:36.172Z,42.20
2023-02-15T03:00:06.038Z,59.40
2023-02-15T03:02:40.328Z,105.97
2023-02-15T03:05:14.615Z,33.00
2023-02-15T03:07:43.812Z,36.17
2023-02-15T03:10:11.607Z,124.03
2023-02-15T03:12:42.195Z,72.00
2023-02-15T03:15:20.779Z,79.43
2023-02-15T03:17:53.194Z,130.48
2023-02-15T03:20:28.246Z,79.53
2023-02-15T03:23:23.433Z,57.55
2023-02-15T03:25:54.137Z,32.08
2023-02-15T03:28:26.726Z,57.88
2023-02-15T03:30:56.848Z,97.05
2023-02-15T03:33:26.874Z,56.20
2023-02-15T03:36:05.370Z,74.90
2023-02-15T03:38:44.391Z,37.47
2023-02-15T03:41:13.560Z,49.90
2023-02-15T03:43:46.183Z,39.53
2023-02-15T03:46:37.289Z,38.05
2023-02-15T03:49:25.202Z,60.47
2023-02-15T03:51:55.573Z,29.05
2023-02-15T03:54:48.612Z,31.38
2023-02-15T03:57:40.445Z,105.47
2023-02-15T04:00:41.242Z,59.38
2023-02-15T04:03:17.075Z,59.35
2023-02-15T04:05:45.570Z,36.22
2023-02-15T04:08:13.154Z,25.70
2023-02-15T04:10:56.297Z,40.13
2023-02-15T04:13:32.774Z,60.03
2023-02-15T04:16:07.281Z,40.90
2023-02-15T04:19:00.702Z,67.25
2023-02-15T04:21:48.147Z,28.35
2023-02-15T04:24:33.723Z,26.08
2023-02-15T04:27:01.352Z,42.10
2023-02-15T04:29:28.727Z,42.38
2023-02-15T04:31:57.507Z,51.20
2023-02-15T04:34:24.381Z,49.90
2023-02-15T04:36:51.632Z,24.83
2023-02-15T04:39:19.583Z,29.77
2023-02-15T04:41:46.985Z,69.38
2023-02-15T04:44:13.894Z,32.17
2023-02-15T04:46:40.700Z,40.67
2023-02-15T04:49:07.585Z,40.58
2023-02-15T04:51:34.431Z,22.27
2023-02-15T04:54:01.225Z,47.08
2023-02-15T04:56:28.074Z,30.85
2023-02-15T04:58:54.872Z,61.35
2023-02-15T05:01:21.823Z,43.17
2023-02-15T05:03:48.625Z,52.45
2023-02-15T05:06:15.431Z,28.38
2023-02-15T05:08:42.226Z,39.65
2023-02-15T05:11:09.031Z,107.82
2023-02-15T05:13:35.841Z,70.88
2023-02-15T05:16:03.194Z,151.43
2023-02-15T05:18:30.193Z,87.60
2023-02-15T05:20:57.122Z,199.23
2023-02-15T05:23:23.962Z,59.83
2023-02-15T05:26:10.773Z,42.00
2023-02-15T05:28:39.324Z,65.72
2023-02-15T05:31:09.145Z,49.15
2023-02-15T05:33:36.538Z,68.28
2023-02-15T05:36:04.509Z,69.85
2023-02-15T05:38:32.054Z,107.72
2023-02-15T05:40:59.327Z,34.33
2023-02-15T05:43:26.437Z,118.57
2023-02-15T05:45:55.475Z,44.38
2023-02-15T05:48:25.037Z,44.47
2023-02-15T05:51:03.638Z,79.63
2023-02-15T05:53:32.289Z,46.97
2023-02-15T05:56:03.548Z,28.27
2023-02-15T05:58:33.088Z,53.47
2023-02-15T06:00:59.963Z,64.45
2023-02-15T06:03:29.444Z,50.65
2023-02-15T06:05:56.273Z,51.70
2023-02-15T06:08:23.095Z,93.40
2023-02-15T06:10:49.978Z,99.07
2023-02-15T06:13:16.866Z,95.22
2023-02-15T06:15:43.728Z,67.55
2023-02-15T06:18:10.652Z,104.25
2023-02-15T06:20:37.424Z,56.53
2023-02-15T06:23:04.276Z,110.75
2023-02-15T06:25:31.145Z,44.05
2023-02-15T06:27:57.958Z,63.90
2023-02-15T06:30:24.902Z,27.98
2023-02-15T06:32:51.921Z,113.32
2023-02-15T06:35:18.836Z,62.95
2023-02-15T06:37:47.808Z,66.55
2023-02-15T06:40:15.274Z,76.85
2023-02-15T06:42:45.140Z,31.73
2023-02-15T06:45:12.226Z,24.67
2023-02-15T06:47:39.176Z,25.05
2023-02-15T06:50:07.891Z,45.45
2023-02-15T06:52:35.037Z,29.95
2023-02-15T06:55:02.170Z,38.08
2023-02-15T06:57:28.977Z,27.83
2023-02-15T06:59:55.837Z,26.45
2023-02-15T07:02:22.636Z,31.50
2023-02-15T07:04:49.508Z,33.30
2023-02-15T07:07:16.462Z,27.33
2023-02-15T07:09:43.290Z,36.20
2023-02-15T07:12:29.174Z,41.35
2023-02-15T07:14:56.082Z,27.58
2023-02-15T07:17:38.576Z,30.15
2023-02-15T07:20:08.814Z,24.70
2023-02-15T07:22:37.383Z,37.05
2023-02-15T07:25:09.315Z,26.48
2023-02-15T07:27:36.578Z,35.50
2023-02-15T07:30:04.502Z,56.35
2023-02-15T07:32:33.140Z,25.88
2023-02-15T07:35:00.852Z,28.33
2023-02-15T07:37:28.772Z,61.83
2023-02-15T07:39:55.651Z,99.28
2023-02-15T07:42:23.110Z,37.03
2023-02-15T07:44:59.825Z,35.90
2023-02-15T07:47:27.966Z,48.22
2023-02-15T07:49:54.769Z,70.47
2023-02-15T07:52:21.594Z,45.33
2023-02-15T07:54:48.406Z,49.58
2023-02-15T07:57:15.192Z,22.88
2023-02-15T07:59:42.053Z,26.73
2023-02-15T08:02:12.298Z,24.35
2023-02-15T08:04:40.354Z,29.10
2023-02-15T08:07:09.376Z,26.70
2023-02-15T08:09:38.749Z,21.73
2023-02-15T08:12:05.960Z,24.13
2023-02-15T08:14:33.503Z,22.55
2023-02-15T08:17:06.426Z,23.90
2023-02-15T08:19:36.715Z,23.02
2023-02-15T08:22:08.839Z,24.27
2023-02-15T08:24:38.995Z,24.55
2023-02-15T08:27:09.110Z,29.38
2023-02-15T08:29:38.620Z,27.17
2023-02-15T08:32:08.544Z,24.88
2023-02-15T08:34:39.099Z,28.85
2023-02-15T08:37:07.248Z,32.42
2023-02-15T08:39:34.869Z,26.42
2023-02-15T08:42:01.958Z,30.58
2023-02-15T08:44:28.954Z,27.20
2023-02-15T08:46:55.857Z,25.67
2023-02-15T08:49:23.081Z,26.13
2023-02-15T08:51:50.706Z,26.50
2023-02-15T08:54:20.616Z,27.10
2023-02-15T08:56:47.947Z,27.35
2023-02-15T08:59:23.532Z,27.75
2023-02-15T09:01:52.446Z,26.17
2023-02-15T09:04:20.408Z,28.33
2023-02-15T09:06:49.490Z,25.90
2023-02-15T09:09:17.661Z,30.48
2023-02-15T09:11:47.015Z,29.90
2023-02-15T09:14:22.579Z,26.95
2023-02-15T09:16:51.977Z,27.48
2023-02-15T09:19:20.805Z,35.95
2023-02-15T09:21:47.681Z,27.95
2023-02-15T09:24:16.453Z,26.58
2023-02-15T09:26:46.131Z,24.27
2023-02-15T09:29:14.147Z,25.05
2023-02-15T09:31:47.281Z,27.50
2023-02-15T09:34:17.648Z,27.48
2023-02-15T09:36:45.274Z,29.20
2023-02-15T09:39:16.768Z,25.13
2023-02-15T09:42:27.592Z,26.23
2023-02-15T09:45:09.827Z,24.70
2023-02-15T09:47:55.356Z,24.73
2023-02-15T09:50:36.938Z,27.80
2023-02-15T09:53:41.694Z,35.17
2023-02-15T09:56:21.098Z,27.00
2023-02-15T09:58:53.971Z,34.23
2023-02-15T10:01:58.915Z,31.03
2023-02-15T10:04:58.343Z,31.73
2023-02-15T10:07:46.883Z,32.90
2023-02-15T10:10:42.425Z,32.33
2023-02-15T10:13:34.281Z,32.90
2023-02-15T10:16:27.627Z,28.80
2023-02-15T10:19:04.747Z,31.13
2023-02-15T10:21:55.179Z,29.80
2023-02-15T10:24:47.795Z,28.33
2023-02-15T10:27:20.984Z,33.93
2023-02-15T10:29:56.955Z,30.10
2023-02-15T10:32:30.376Z,28.87
2023-02-15T10:35:25.379Z,33.70
2023-02-15T10:38:29.866Z,31.13
2023-02-15T10:41:30.738Z,25.87
2023-02-15T10:44:30.920Z,35.73
2023-02-15T10:47:16.735Z,24.97
2023-02-15T10:49:46.637Z,26.03
2023-02-15T10:52:43.892Z,29.57
2023-02-15T10:55:55.646Z,30.37
2023-02-15T10:59:00.054Z,27.83
2023-02-15T11:01:29.963Z,26.67
2023-02-15T11:03:57.129Z,27.40
2023-02-15T11:06:26.918Z,39.13
2023-02-15T11:09:00.520Z,31.30
2023-02-15T11:11:41.568Z,28.77
2023-02-15T11:14:32.626Z,27.83
2023-02-15T11:17:06.788Z,25.20
2023-02-15T11:19:48.761Z,23.63
2023-02-15T11:22:17.953Z,25.83
2023-02-15T11:24:47.813Z,29.20
2023-02-15T11:27:19.859Z,30.50
2023-02-15T11:29:46.602Z,29.43
2023-02-15T11:32:47.569Z,31.10
2023-02-15T11:35:14.353Z,28.23
2023-02-15T11:38:35.137Z,28.23
2023-02-15T11:41:10.247Z,27.50
2023-02-15T11:43:41.414Z,27.40
2023-02-15T11:46:12.507Z,30.73
2023-02-15T11:48:40.376Z,29.77
2023-02-15T11:51:10.500Z,31.80
2023-02-15T11:53:39.764Z,27.60
2023-02-15T11:56:13.682Z,26.57
2023-02-15T11:59:05.073Z,30.33
2023-02-15T12:01:41.534Z,30.27
2023-02-15T12:04:18.058Z,23.97
2023-02-15T12:07:03.089Z,30.53
2023-02-15T12:09:57.833Z,27.93
2023-02-15T12:12:24.683Z,25.40
2023-02-15T12:14:57.302Z,28.30
2023-02-15T12:17:30.775Z,33.10
2023-02-15T12:20:01.921Z,29.53
2023-02-15T12:22:30.378Z,30.07
2023-02-15T12:25:01.202Z,31.33
2023-02-15T12:27:31.793Z,24.03
2023-02-15T12:30:03.466Z,29.80
2023-02-15T12:32:35.460Z,28.80
2023-02-15T12:35:15.468Z,27.23
2023-02-15T12:37:56.640Z,24.03
2023-02-15T12:40:30.887Z,23.30
2023-02-15T12:42:58.822Z,31.33
2023-02-15T12:45:33.631Z,22.40
2023-02-15T12:48:17.917Z,22.60
2023-02-15T12:50:55.981Z,24.20
2023-02-15T12:53:34.454Z,30.47
2023-02-15T12:56:07.411Z,24.77
2023-02-15T12:58:36.323Z,24.97
2023-02-15T13:01:20.379Z,25.70
2023-02-15T13:03:56.209Z,25.80
2023-02-15T13:06:23.381Z,21.60
2023-02-15T13:08:52.691Z,27.03
2023-02-15T13:11:31.365Z,26.67
2023-02-15T13:14:01.909Z,22.73
2023-02-15T13:16:38.451Z,20.73
2023-02-15T13:19:24.466Z,24.23
2023-02-15T13:21:54.176Z,26.57
2023-02-15T13:24:45.058Z,22.43
2023-02-15T13:27:17.774Z,30.43
2023-02-15T13:29:54.930Z,25.70
2023-02-15T13:32:32.377Z,26.63
2023-02-15T13:35:01.325Z,22.40
2023-02-15T13:37:55.302Z,23.40
2023-02-15T13:40:41.607Z,24.60
2023-02-15T13:43:17.871Z,23.87
2023-02-15T13:46:03.147Z,23.17
2023-02-15T13:48:52.520Z,20.80
2023-02-15T13:51:25.797Z,24.17
2023-02-15T13:54:10.740Z,23.13
2023-02-15T13:57:08.337Z,21.90
2023-02-15T13:59:57.524Z,24.57
2023-02-15T14:02:46.268Z,21.13
2023-02-15T14:05:39.261Z,24.40
2023-02-15T14:08:25.821Z,19.60
2023-02-15T14:11:03.438Z,24.37
2023-02-15T14:13:48.322Z,18.77
2023-02-15T14:17:09.126Z,19.60
2023-02-15T14:19:50.924Z,21.80
2023-02-15T14:22:42.669Z,22.33
2023-02-15T14:25:21.605Z,19.20
2023-02-15T14:28:09.985Z,21.37
2023-02-15T14:30:42.340Z,19.57
2023-02-15T14:33:16.692Z,20.33
2023-02-15T14:35:44.840Z,20.20
2023-02-15T14:38:17.490Z,19.97
2023-02-15T14:41:03.153Z,19.47
2023-02-15T14:44:04.579Z,17.40
2023-02-15T14:46:46.429Z,18.73
2023-02-15T14:49:17.688Z,28.70
2023-02-15T14:51:44.728Z,19.87
2023-02-15T14:54:18.645Z,21.13
2023-02-15T14:57:07.358Z,30.27
2023-02-15T14:59:59.553Z,26.03
2023-02-15T15:02:55.497Z,24.37
2023-02-15T15:05:36.393Z,28.90
2023-02-15T15:08:05.763Z,22.47
2023-02-15T15:10:37.610Z,27.90
2023-02-15T15:13:32.388Z,22.93
2023-02-15T15:16:24.505Z,28.67
2023-02-15T15:18:51.585Z,24.40
2023-02-15T15:21:49.326Z,29.53
2023-02-15T15:24:37.919Z,24.03
2023-02-15T15:27:38.780Z,21.57
2023-02-15T15:30:25.875Z,22.70
2023-02-15T15:32:58.380Z,21.00
2023-02-15T15:36:02.878Z,21.37
2023-02-15T15:39:07.442Z,21.40
2023-02-15T15:41:53.761Z,20.10
2023-02-15T15:44:55.506Z,29.03
2023-02-15T15:47:36.731Z,22.47
2023-02-15T15:50:17.535Z,21.13
2023-02-15T15:52:51.415Z,21.60
2023-02-15T15:55:22.600Z,22.40
2023-02-15T15:57:53.334Z,32.33
2023-02-15T16:00:32.250Z,24.50
2023-02-15T16:02:59.065Z,23.80
2023-02-15T16:05:26.012Z,32.63
2023-02-15T16:07:52.826Z,23.50
2023-02-15T16:10:24.177Z,26.33
2023-02-15T16:12:52.291Z,26.93
2023-02-15T16:15:25.336Z,29.00
2023-02-15T16:17:58.051Z,30.90
2023-02-15T16:20:34.884Z,30.77
2023-02-15T16:23:13.591Z,36.10
2023-02-15T16:26:02.222Z,35.77
2023-02-15T16:28:29.526Z,44.05
2023-02-15T16:31:15.687Z,41.88
2023-02-15T16:33:44.224Z,41.75
2023-02-15T16:36:22.817Z,41.97
2023-02-15T16:38:52.387Z,43.60
2023-02-15T16:41:28.291Z,47.65
2023-02-15T16:43:57.928Z,40.60
2023-02-15T16:46:47.555Z,46.40
2023-02-15T16:49:27.910Z,45.95
2023-02-15T16:51:56.227Z,51.50
2023-02-15T16:54:25.231Z,51.47
2023-02-15T16:56:52.630Z,56.50
2023-02-15T16:59:31.631Z,53.80
2023-02-15T17:01:59.106Z,55.80
2023-02-15T17:04:32.363Z,49.58
2023-02-15T17:06:59.203Z,71.93
2023-02-15T17:09:26.528Z,50.78
2023-02-15T17:11:54.228Z,53.53
2023-02-15T17:14:27.643Z,57.15
2023-02-15T17:17:00.238Z,57.85
2023-02-15T17:19:44.730Z,56.47
2023-02-15T17:22:23.271Z,46.22
2023-02-15T17:24:58.656Z,45.58
2023-02-15T17:27:28.947Z,48.45
2023-02-15T17:30:02.083Z,47.60
2023-02-15T17:32:31.809Z,45.40
2023-02-15T17:35:09.497Z,51.92
2023-02-15T17:37:39.279Z,50.65
2023-02-15T17:40:20.464Z,56.63
2023-02-15T17:42:47.409Z,44.53
2023-02-15T17:45:15.467Z,46.75
2023-02-15T17:47:43.074Z,62.42
2023-02-15T17:50:24.392Z,51.55
2023-02-15T17:52:53.214Z,74.65
2023-02-15T17:55:41.220Z,48.70
2023-02-15T17:58:17.002Z,62.05
2023-02-15T18:01:05.770Z,43.45
2023-02-15T18:04:06.889Z,48.17
2023-02-15T18:06:54.371Z,49.15
2023-02-15T18:09:41.655Z,46.72
2023-02-15T18:12:29.959Z,49.65
2023-02-15T18:14:57.954Z,45.45
2023-02-15T18:17:38.341Z,48.55
2023-02-15T18:20:11.303Z,48.95
2023-02-15T18:22:38.163Z,54.60
2023-02-15T18:25:05.226Z,60.60
2023-02-15T18:27:32.029Z,55.92
2023-02-15T18:29:58.869Z,88.22
2023-02-15T18:32:34.179Z,89.75
2023-02-15T18:35:02.572Z,138.23
2023-02-15T18:37:33.171Z,71.60
2023-02-15T18:40:01.350Z,41.92
2023-02-15T18:42:37.113Z,59.40
2023-02-15T18:45:13.320Z,54.33
2023-02-15T18:47:40.200Z,41.28
2023-02-15T18:50:07.588Z,51.13
2023-02-15T18:52:37.981Z,80.03
2023-02-15T18:55:15.562Z,85.72
2023-02-15T18:57:44.893Z,65.82
2023-02-15T19:00:34.315Z,106.90
2023-02-15T19:03:02.605Z,75.28
2023-02-15T19:05:31.606Z,159.75
2023-02-15T19:08:00.400Z,99.63
2023-02-15T19:10:29.703Z,121.40
2023-02-15T19:12:57.592Z,200.50
2023-02-15T19:15:27.476Z,181.10
2023-02-15T19:17:54.873Z,295.98
2023-02-15T19:20:27.862Z,91.15
2023-02-15T19:22:56.653Z,257.33
2023-02-15T19:25:28.656Z,195.68
2023-02-15T19:27:56.464Z,328.40
2023-02-15T19:30:28.638Z,104.18
2023-02-15T19:32:56.828Z,86.50
2023-02-15T19:35:27.094Z,184.60
2023-02-15T19:37:56.566Z,149.07
2023-02-15T19:40:25.863Z,136.88
2023-02-15T19:42:53.626Z,293.10
2023-02-15T19:45:25.914Z,227.40
2023-02-15T19:47:55.176Z,152.85
2023-02-15T19:50:28.401Z,112.72
2023-02-15T19:52:55.561Z,104.57
2023-02-15T19:55:31.436Z,168.38
2023-02-15T19:57:59.392Z,170.30
2023-02-15T20:00:29.526Z,130.85
2023-02-15T20:02:58.011Z,293.67
2023-02-15T20:05:26.379Z,144.07
2023-02-15T20:07:53.775Z,149.60
2023-02-15T20:10:24.500Z,116.60
2023-02-15T20:12:51.793Z,244.73
2023-02-15T20:15:29.074Z,313.65
2023-02-15T20:17:57.964Z,288.05
2023-02-15T20:20:31.603Z,357.35
2023-02-15T20:22:58.524Z,202.35
2023-02-15T20:25:27.952Z,278.02
2023-02-15T20:27:55.676Z,125.65
2023-02-15T20:30:31.624Z,128.45
2023-02-15T20:32:58.886Z,363.02
2023-02-15T20:35:30.850Z,386.75
2023-02-15T20:38:02.785Z,227.57
2023-02-15T20:40:33.049Z,112.22
2023-02-15T20:43:00.139Z,144.57
2023-02-15T20:45:32.907Z,97.82
2023-02-15T20:48:01.903Z,77.10
2023-02-15T20:50:32.294Z,126.15
2023-02-15T20:53:00.759Z,196.88
2023-02-15T20:55:30.373Z,318.23
2023-02-15T20:57:58.170Z,454.00
2023-02-15T21:00:28.958Z,389.70
2023-02-15T21:02:58.997Z,333.27
2023-02-15T21:05:31.138Z,189.23
2023-02-15T21:07:58.824Z,408.05
2023-02-15T21:10:29.439Z,316.75
2023-02-15T21:12:59.400Z,357.50
2023-02-15T21:15:39.889Z,245.02
2023-02-15T21:18:12.758Z,170.75
2023-02-15T21:20:45.081Z,192.75
2023-02-15T21:23:15.541Z,306.63
2023-02-15T21:25:44.545Z,213.48
2023-02-15T21:28:18.088Z,257.52
2023-02-15T21:30:45.136Z,206.15
2023-02-15T21:33:12.025Z,207.55
2023-02-15T21:35:39.382Z,144.20
2023-02-15T21:38:08.014Z,211.68
2023-02-15T21:40:35.036Z,227.98
2023-02-15T21:43:20.284Z,194.70
2023-02-15T21:46:05.756Z,133.35
2023-02-15T21:48:32.560Z,246.25
2023-02-15T21:51:19.625Z,133.35
2023-02-15T21:53:47.058Z,283.42
2023-02-15T21:56:17.347Z,146.02
2023-02-15T21:58:44.162Z,116.80
2023-02-15T22:01:24.656Z,216.88
2023-02-15T22:03:53.331Z,283.25
2023-02-15T22:06:20.192Z,197.55
2023-02-15T22:08:50.454Z,299.83
2023-02-15T22:11:20.315Z,299.55
2023-02-15T22:13:48.860Z,293.30
2023-02-15T22:16:21.957Z,128.00
2023-02-15T22:18:49.202Z,182.98
2023-02-15T22:21:16.758Z,104.05
2023-02-15T22:23:43.752Z,145.75
2023-02-15T22:26:23.868Z,85.85
2023-02-15T22:28:51.012Z,73.10
2023-02-15T22:31:21.246Z,90.68
2023-02-15T22:33:49.814Z,110.43
2023-02-15T22:36:29.363Z,123.07
2023-02-15T22:38:58.410Z,239.98
2023-02-15T22:41:28.845Z,181.15
2023-02-15T22:43:56.740Z,319.58
2023-02-15T22:46:24.969Z,137.70
2023-02-15T22:48:52.227Z,119.28
2023-02-15T22:51:32.841Z,140.32
2023-02-15T22:53:59.871Z,94.20
2023-02-15T22:56:34.932Z,232.07
2023-02-15T22:59:04.573Z,236.70
2023-02-15T23:01:35.031Z,160.52
2023-02-15T23:04:03.899Z,226.13
2023-02-15T23:06:31.530Z,236.02
2023-02-15T23:09:00.691Z,100.80
2023-02-15T23:11:28.121Z,185.90
2023-02-15T23:13:55.151Z,186.40
2023-02-15T23:16:22.058Z,127.47
2023-02-15T23:18:49.427Z,112.78
2023-02-15T23:21:33.627Z,183.00
2023-02-15T23:24:25.550Z,133.77
2023-02-15T23:26:52.907Z,183.82
2023-02-15T23:29:23.383Z,150.70
2023-02-15T23:31:53.110Z,151.23
2023-02-15T23:34:31.862Z,79.50
2023-02-15T23:36:58.643Z,77.97
2023-02-15T23:39:45.744Z,166.52
2023-02-15T23:42:19.214Z,146.70
2023-02-15T23:44:47.066Z,90.97
2023-02-15T23:47:46.333Z,65.93
2023-02-15T23:50:26.291Z,201.00
2023-02-15T23:52:54.428Z,160.80
2023-02-15T23:55:22.509Z,97.78
2023-02-15T23:57:49.699Z,146.98
